createdAt,value
2019-02-06T00:10:16.796Z,62.92
2019-02-06T00:12:49.315Z,63.67
2019-02-06T00:18:35.012Z,63.82
2019-02-06T00:32:44.385Z,65.87
2019-02-06T00:35:34.956Z,66.54
2019-02-06T00:43:55.457Z,67.11
2019-02-06T00:46:46.027Z,66.99
2019-02-06T00:49:36.614Z,67.14
2019-02-06T00:52:27.519Z,67.68
2019-02-06T00:55:24.708Z,67.55
2019-02-06T01:03:24.056Z,67.20
2019-02-06T01:06:14.697Z,67.38
2019-02-06T01:09:18.228Z,67.37
2019-02-06T01:23:30.450Z,67.47
2019-02-06T01:26:03.216Z,67.49
2019-02-06T01:34:20.736Z,67.37
2019-02-06T01:37:11.309Z,67.25
2019-02-06T01:40:02.311Z,67.05
2019-02-06T01:43:15.046Z,66.91
2019-02-06T01:51:14.751Z,66.85
2019-02-06T01:53:57.672Z,66.94
2019-02-06T01:56:59.907Z,67.22
2019-02-06T01:59:42.246Z,67.31
2019-02-06T02:02:20.338Z,67.06
2019-02-06T02:05:30.007Z,67.01
2019-02-06T02:11:03.072Z,66.46
2019-02-06T02:13:53.781Z,66.34
2019-02-06T02:19:30.819Z,67.38
2019-02-06T02:22:21.415Z,67.13
2019-02-06T02:25:15.423Z,67.68
2019-02-06T02:27:47.018Z,68.00
2019-02-06T02:33:22.891Z,67.50
2019-02-06T02:38:57.009Z,67.24
2019-02-06T02:44:51.219Z,67.14
2019-02-06T02:48:01.785Z,67.62
2019-02-06T02:58:42.984Z,68.64
2019-02-06T03:15:16.261Z,69.90
2019-02-06T03:23:17.600Z,70.08
2019-02-06T03:25:59.862Z,70.38
2019-02-06T03:28:50.481Z,70.46
2019-02-06T03:34:36.427Z,70.53
2019-02-06T03:37:10.082Z,70.88
2019-02-06T03:40:00.689Z,71.09
2019-02-06T03:42:51.311Z,71.47
2019-02-06T03:45:35.775Z,71.67
2019-02-06T03:48:38.474Z,71.69
2019-02-06T03:51:12.249Z,71.76
2019-02-06T03:54:02.851Z,71.70
2019-02-06T03:56:53.453Z,72.09
2019-02-06T03:59:44.099Z,72.16
2019-02-06T04:16:58.376Z,73.73
2019-02-06T04:19:48.987Z,74.21
2019-02-06T04:25:43.526Z,75.62
2019-02-06T04:28:53.235Z,76.07
2019-02-06T04:31:35.712Z,76.72
2019-02-06T04:34:28.393Z,77.20
2019-02-06T04:37:31.265Z,77.53
2019-02-06T04:45:39.482Z,76.70
2019-02-06T04:48:32.131Z,76.88
2019-02-06T04:54:17.652Z,77.01
2019-02-06T04:56:48.901Z,76.49
2019-02-06T04:59:39.230Z,76.33
2019-02-06T05:02:11.823Z,75.81
2019-02-06T05:08:03.536Z,75.92
2019-02-06T05:11:04.278Z,76.16
2019-02-06T05:13:36.860Z,76.04
2019-02-06T05:16:46.544Z,76.06
2019-02-06T05:19:18.599Z,75.61
2019-02-06T05:22:09.175Z,75.47
2019-02-06T05:25:37.839Z,75.60
2019-02-06T05:28:18.220Z,75.22
2019-02-06T05:30:59.469Z,75.18
2019-02-06T05:33:42.661Z,74.99
2019-02-06T05:36:52.354Z,75.25
2019-02-06T05:42:27.807Z,74.99
2019-02-06T05:45:18.393Z,74.87
2019-02-06T05:50:33.420Z,74.59
2019-02-06T05:53:23.999Z,74.86
2019-02-06T05:56:14.575Z,75.02
2019-02-06T06:02:13.510Z,75.41
2019-02-06T06:08:11.636Z,75.38
2019-02-06T06:11:02.332Z,75.58
2019-02-06T06:13:35.343Z,75.77
2019-02-06T06:16:25.937Z,75.65
2019-02-06T06:19:16.527Z,75.99
2019-02-06T06:22:26.197Z,75.92
2019-02-06T06:25:17.278Z,75.88
2019-02-06T06:27:50.144Z,75.59
2019-02-06T06:33:25.909Z,75.53
2019-02-06T06:41:53.744Z,75.70
2019-02-06T06:50:17.830Z,75.91
2019-02-06T06:53:08.416Z,76.14
2019-02-06T07:01:27.027Z,75.97
2019-02-06T07:09:45.170Z,75.26
2019-02-06T07:12:16.394Z,75.44
2019-02-06T07:15:18.886Z,75.54
2019-02-06T07:18:03.310Z,75.59
2019-02-06T07:26:04.258Z,75.85
2019-02-06T07:28:54.866Z,75.82
2019-02-06T07:35:27.313Z,76.03
2019-02-06T07:38:24.426Z,75.88
2019-02-06T07:41:00.820Z,75.84
2019-02-06T07:43:51.418Z,76.48
2019-02-06T07:49:44.314Z,76.42
2019-02-06T07:52:54.373Z,75.91
2019-02-06T07:55:45.025Z,75.93
2019-02-06T08:01:31.553Z,75.29
2019-02-06T08:04:03.493Z,74.82
2019-02-06T08:06:54.094Z,74.54
2019-02-06T08:09:44.718Z,74.27
2019-02-06T08:13:25.138Z,74.00
2019-02-06T08:15:58.337Z,73.73
2019-02-06T08:18:29.542Z,73.61
2019-02-06T08:21:20.219Z,73.55
2019-02-06T08:24:10.821Z,73.25
2019-02-06T08:26:54.001Z,73.14
2019-02-06T08:29:33.076Z,72.47
2019-02-06T08:32:23.656Z,72.83
2019-02-06T08:35:16.491Z,73.17
2019-02-06T08:37:49.519Z,73.30
2019-02-06T08:43:44.501Z,71.98
2019-02-06T08:46:35.130Z,72.10
2019-02-06T08:52:09.574Z,71.40
2019-02-06T08:57:46.646Z,70.71
2019-02-06T09:01:08.614Z,70.44
2019-02-06T09:03:52.666Z,70.89
2019-02-06T09:06:23.913Z,69.73
2019-02-06T09:12:14.167Z,69.87
2019-02-06T09:18:30.918Z,69.48
2019-02-06T09:21:02.804Z,69.81
2019-02-06T09:23:39.977Z,69.97
2019-02-06T09:31:48.563Z,69.03
2019-02-06T09:34:31.397Z,68.50
2019-02-06T09:37:22.021Z,68.68
2019-02-06T09:40:24.334Z,69.22
2019-02-06T09:42:55.918Z,68.69
2019-02-06T09:48:29.868Z,69.15
2019-02-06T09:54:05.836Z,68.57
2019-02-06T09:56:59.045Z,68.52
2019-02-06T09:59:49.693Z,68.64
2019-02-06T10:02:59.837Z,68.20
2019-02-06T10:05:52.173Z,67.72
2019-02-06T10:08:42.775Z,68.42
2019-02-06T10:11:33.379Z,67.90
2019-02-06T10:17:25.006Z,67.80
2019-02-06T10:20:17.463Z,67.62
2019-02-06T10:26:14.654Z,66.80
2019-02-06T10:32:11.010Z,66.51
2019-02-06T10:35:01.621Z,66.92
2019-02-06T10:40:48.044Z,66.58
2019-02-06T10:43:38.708Z,65.93
2019-02-06T10:46:29.450Z,66.38
2019-02-06T10:55:16.425Z,65.17
2019-02-06T10:58:19.656Z,63.75
2019-02-06T11:01:11.491Z,62.98
2019-02-06T11:04:02.149Z,63.18
2019-02-06T11:09:46.775Z,64.25
2019-02-06T11:15:22.692Z,64.56
2019-02-06T11:21:01.695Z,65.02
2019-02-06T11:23:52.320Z,64.06
2019-02-06T11:26:43.053Z,63.19
2019-02-06T11:32:18.392Z,62.56
2019-02-06T11:35:17.388Z,63.06
2019-02-06T11:37:50.357Z,62.41
2019-02-06T11:41:02.613Z,61.40
2019-02-06T11:43:55.558Z,60.81
2019-02-06T11:52:38.952Z,61.59
2019-02-06T11:58:33.628Z,61.53
2019-02-06T12:09:39.595Z,60.68
2019-02-06T12:15:33.635Z,59.78
2019-02-06T12:18:24.330Z,61.31
2019-02-06T12:20:55.686Z,61.64
2019-02-06T12:23:56.592Z,61.80
2019-02-06T12:26:30.574Z,61.24
2019-02-06T12:35:16.688Z,60.48
2019-02-06T12:38:37.730Z,61.60
2019-02-06T12:41:11.510Z,62.56
2019-02-06T12:44:02.110Z,62.05
2019-02-06T12:46:52.716Z,61.17
2019-02-06T12:49:43.394Z,62.06
2019-02-06T12:55:40.279Z,63.22
2019-02-06T12:58:13.011Z,62.45
2019-02-06T13:01:03.640Z,61.06
2019-02-06T13:06:36.773Z,58.79
2019-02-06T13:12:13.064Z,62.03
2019-02-06T13:17:48.887Z,60.81
2019-02-06T13:20:39.655Z,61.46
2019-02-06T13:23:49.658Z,61.41
2019-02-06T13:26:51.538Z,60.03
2019-02-06T13:29:23.967Z,60.96
2019-02-06T13:32:34.301Z,61.07
2019-02-06T13:35:24.933Z,61.15
2019-02-06T13:38:08.679Z,60.91
2019-02-06T13:40:59.365Z,63.06
2019-02-06T13:46:32.904Z,61.75
2019-02-06T13:49:23.513Z,60.83
2019-02-06T13:52:14.105Z,61.12
2019-02-06T13:54:59.218Z,60.84
2019-02-06T13:57:49.987Z,60.78
2019-02-06T14:03:46.280Z,60.53
2019-02-06T14:09:30.832Z,60.82
2019-02-06T14:12:02.984Z,62.55
2019-02-06T14:14:45.039Z,63.27
2019-02-06T14:17:18.358Z,63.02
2019-02-06T14:26:32.880Z,62.38
2019-02-06T14:30:06.183Z,63.40
2019-02-06T14:33:10.375Z,63.49
2019-02-06T14:36:20.916Z,63.45
2019-02-06T14:39:32.170Z,63.88
2019-02-06T14:42:29.587Z,64.80
2019-02-06T14:45:46.222Z,63.43
2019-02-06T14:52:08.332Z,62.38
2019-02-06T14:55:35.673Z,63.52
2019-02-06T14:59:05.305Z,64.18
2019-02-06T15:02:34.068Z,65.34
2019-02-06T15:06:02.837Z,65.35
2019-02-06T15:09:22.832Z,65.43
2019-02-06T15:12:32.424Z,64.70
2019-02-06T15:15:36.740Z,66.57
2019-02-06T15:19:05.591Z,67.09
2019-02-06T15:26:07.163Z,68.77
2019-02-06T15:29:35.934Z,68.99
2019-02-06T15:32:50.134Z,68.74
2019-02-06T15:36:00.535Z,68.39
2019-02-06T15:39:29.322Z,68.52
2019-02-06T15:42:55.115Z,68.28
2019-02-06T15:46:06.171Z,68.22
2019-02-06T15:49:15.634Z,68.97
2019-02-06T15:52:49.374Z,69.21
2019-02-06T15:55:59.559Z,70.08
2019-02-06T16:02:19.020Z,70.17
2019-02-06T16:05:55.542Z,69.49
2019-02-06T16:09:24.311Z,69.67
2019-02-06T16:12:52.772Z,70.01
2019-02-06T16:15:48.109Z,70.27
2019-02-06T16:19:19.606Z,70.95
2019-02-06T16:22:37.761Z,70.86
2019-02-06T16:26:02.948Z,71.58
2019-02-06T16:29:12.462Z,72.40
2019-02-06T16:32:22.192Z,72.45
2019-02-06T16:35:51.021Z,72.32
2019-02-06T16:39:19.798Z,72.96
2019-02-06T16:42:48.580Z,72.50
2019-02-06T16:46:17.394Z,72.68
2019-02-06T16:49:46.214Z,70.98
2019-02-06T16:53:34.262Z,69.88
2019-02-06T16:56:43.715Z,69.13
2019-02-06T17:00:33.656Z,67.93
2019-02-06T17:03:50.956Z,66.39
2019-02-06T17:07:19.755Z,68.24
2019-02-06T17:10:52.786Z,69.45
2019-02-06T17:17:12.594Z,72.18
2019-02-06T17:20:41.392Z,72.73
2019-02-06T17:24:10.176Z,73.54
2019-02-06T17:27:38.955Z,73.38
2019-02-06T17:31:03.346Z,72.03
2019-02-06T17:34:12.746Z,71.58
2019-02-06T17:37:23.000Z,70.33
2019-02-06T17:40:42.569Z,67.17
2019-02-06T17:44:12.762Z,66.83
2019-02-06T17:51:02.134Z,63.79
2019-02-06T17:54:13.720Z,65.53
2019-02-06T18:00:40.188Z,68.71
2019-02-06T18:03:14.004Z,65.11
2019-02-06T18:09:41.644Z,63.17
2019-02-06T18:12:26.597Z,60.84
2019-02-06T18:15:00.205Z,62.34
2019-02-06T18:18:03.584Z,64.88
2019-02-06T18:20:41.803Z,67.10
2019-02-06T18:23:51.566Z,69.67
2019-02-06T18:30:01.074Z,70.69
2019-02-06T18:34:11.717Z,71.29
2019-02-06T18:37:06.576Z,69.69
2019-02-06T18:39:40.165Z,68.67
2019-02-06T18:42:37.197Z,71.91
2019-02-06T18:45:18.907Z,70.53
2019-02-06T18:48:05.450Z,67.85
2019-02-06T18:51:11.311Z,67.18
2019-02-06T18:53:44.258Z,70.27
2019-02-06T18:56:34.917Z,68.66
2019-02-06T18:59:18.890Z,66.68
2019-02-06T19:02:09.594Z,66.66
2019-02-06T19:05:38.790Z,72.94
2019-02-06T19:11:15.893Z,73.74
2019-02-06T19:14:06.764Z,76.35
2019-02-06T19:16:49.652Z,77.34
2019-02-06T19:19:40.434Z,77.99
2019-02-06T19:22:32.878Z,78.78
2019-02-06T19:25:17.604Z,79.24
2019-02-06T19:33:38.733Z,80.13
2019-02-06T19:36:29.312Z,80.40
2019-02-06T19:42:02.656Z,80.72
2019-02-06T19:44:53.424Z,79.78
2019-02-06T19:47:44.057Z,79.67
2019-02-06T19:50:46.216Z,80.09
2019-02-06T19:53:37.130Z,80.85
2019-02-06T19:56:20.134Z,80.43
2019-02-06T19:59:10.898Z,79.80
2019-02-06T20:02:02.649Z,80.22
2019-02-06T20:04:53.392Z,80.59
2019-02-06T20:07:24.873Z,79.63
2019-02-06T20:10:25.647Z,77.03
2019-02-06T20:13:16.488Z,76.74
2019-02-06T20:19:10.764Z,72.87
2019-02-06T20:22:02.020Z,68.56
2019-02-06T20:27:53.360Z,65.79
2019-02-06T20:33:41.018Z,64.32
2019-02-06T20:36:43.874Z,66.62
2019-02-06T20:39:16.383Z,67.43
2019-02-06T20:45:18.903Z,65.50
2019-02-06T20:48:10.123Z,64.36
2019-02-06T20:51:15.445Z,68.25
2019-02-06T20:54:17.591Z,73.09
2019-02-06T20:57:11.797Z,76.63
2019-02-06T20:59:34.767Z,76.19
2019-02-06T21:02:25.725Z,77.85
2019-02-06T21:05:35.605Z,79.43
2019-02-06T21:08:18.624Z,79.03
2019-02-06T21:11:09.405Z,79.89
2019-02-06T21:14:00.335Z,77.17
2019-02-06T21:16:51.154Z,73.06
2019-02-06T21:19:44.915Z,71.02
2019-02-06T21:22:18.927Z,69.25
2019-02-06T21:25:29.341Z,67.58
2019-02-06T21:28:11.763Z,68.33
2019-02-06T21:30:54.830Z,70.48
2019-02-06T21:33:46.356Z,71.66
2019-02-06T21:36:37.049Z,73.65
2019-02-06T21:39:20.275Z,72.87
2019-02-06T21:42:10.988Z,71.45
2019-02-06T21:45:01.903Z,67.98
2019-02-06T21:47:45.130Z,66.37
2019-02-06T21:50:37.045Z,69.05
2019-02-06T21:53:09.061Z,72.65
2019-02-06T21:56:00.095Z,74.65
2019-02-06T21:58:50.810Z,78.26
2019-02-06T22:01:41.669Z,79.16
2019-02-06T22:07:35.687Z,78.46
2019-02-06T22:10:23.928Z,79.00
2019-02-06T22:12:55.488Z,76.47
2019-02-06T22:18:56.874Z,76.21
2019-02-06T22:24:14.339Z,71.87
2019-02-06T22:27:05.447Z,70.28
2019-02-06T22:36:13.354Z,63.94
2019-02-06T22:39:05.861Z,64.46
2019-02-06T22:44:40.374Z,64.78
2019-02-06T22:47:31.139Z,64.78
2019-02-06T22:53:31.188Z,63.57
2019-02-06T22:59:28.334Z,61.39
2019-02-06T23:12:07.745Z,60.07
2019-02-06T23:14:41.126Z,62.21
2019-02-06T23:17:33.582Z,63.12
2019-02-06T23:20:24.359Z,61.91
2019-02-06T23:23:15.341Z,62.33
2019-02-06T23:26:12.050Z,62.15
2019-02-06T23:29:02.765Z,61.78
2019-02-06T23:31:53.515Z,61.23
2019-02-06T23:34:44.654Z,63.47
2019-02-06T23:37:41.147Z,66.04
2019-02-06T23:43:39.694Z,69.37
2019-02-06T23:46:30.349Z,72.76
2019-02-06T23:49:51.839Z,71.97
2019-02-06T23:52:25.524Z,73.86
2019-02-06T23:54:57.025Z,76.85
2019-02-06T23:57:47.758Z,79.03
